Time;durP1;ratioP1;P1;durP2;ratioP2;P2;SDS_P1;SDS_P2;PMS_P1;PMS_P2;Temp;Humidity;BMP_temperature;BMP_pressure;BME280_temperature;BME280_humidity;BME280_pressure;Samples;Min_cycle;Max_cycle;Signal;HPM_P1;HPM_P2
2021/08/18 00:01:23;;;;;;;29.73;16.83;;;;;;;12.31;84.53;95834.94;5121723;28;20672;-78
2021/08/18 00:03:48;;;;;;;26.20;16.33;;;;;;;12.37;84.18;95825.72;5122145;28;20203;-78
2021/08/18 00:06:14;;;;;;;28.40;15.67;;;;;;;12.26;84.90;95823.34;5141009;28;20175;-78
2021/08/18 00:08:41;;;;;;;25.27;15.20;;;;;;;12.28;84.66;95826.59;5122675;28;20178;-78
2021/08/18 00:11:06;;;;;;;27.60;16.33;;;;;;;12.30;84.85;95820.28;5122710;28;20175;-76
2021/08/18 00:13:32;;;;;;;23.57;15.70;;;;;;;12.30;84.50;95819.47;5097747;28;20198;-76
2021/08/18 00:15:57;;;;;;;23.80;15.50;;;;;;;12.29;83.91;95823.88;5132393;28;20183;-76
2021/08/18 00:18:23;;;;;;;28.00;15.87;;;;;;;12.29;83.93;95817.84;5096992;28;20183;-76
2021/08/18 00:20:48;;;;;;;25.43;14.77;;;;;;;12.33;83.66;95825.19;5121778;28;20206;-77
2021/08/18 00:23:14;;;;;;;27.60;15.97;;;;;;;12.30;83.31;95827.28;5120677;28;20198;-77
2021/08/18 00:25:39;;;;;;;26.77;16.37;;;;;;;12.16;83.23;95821.63;5122043;28;20171;-77
2021/08/18 00:28:05;;;;;;;28.23;16.03;;;;;;;12.37;82.90;95831.75;5122250;28;20227;-77
2021/08/18 00:30:30;;;;;;;28.57;15.63;;;;;;;12.33;83.09;95822.59;5121051;28;20171;-77
2021/08/18 00:32:55;;;;;;;28.90;15.57;;;;;;;12.31;83.45;95821.09;5104549;28;20175;-75
2021/08/18 00:35:21;;;;;;;25.60;15.67;;;;;;;12.36;82.97;95818.84;5115767;27;20601;-74
2021/08/18 00:37:47;;;;;;;26.80;15.67;;;;;;;12.40;82.98;95818.41;5106819;27;20237;-77
2021/08/18 00:40:13;;;;;;;25.03;14.67;;;;;;;12.37;82.98;95818.72;5138317;27;20207;-76
2021/08/18 00:42:39;;;;;;;24.87;14.80;;;;;;;12.35;83.24;95810.22;5098868;28;20256;-76
2021/08/18 00:45:05;;;;;;;27.03;14.33;;;;;;;12.36;83.40;95818.84;5104937;28;20183;-77
2021/08/18 00:47:39;;;;;;;25.40;15.07;;;;;;;12.41;83.13;95817.44;5105403;28;20212;-76
2021/08/18 00:50:05;;;;;;;25.17;15.10;;;;;;;12.40;83.02;95815.81;5123265;28;20175;-77
2021/08/18 00:52:30;;;;;;;23.30;13.80;;;;;;;12.38;83.42;95817.75;5103379;28;20243;-76
2021/08/18 00:54:55;;;;;;;23.67;13.87;;;;;;;12.29;83.91;95812.63;5120623;28;20197;-78
2021/08/18 00:57:20;;;;;;;23.53;14.23;;;;;;;12.35;83.93;95810.22;5105696;27;20215;-77
2021/08/18 00:59:47;;;;;;;26.20;13.80;;;;;;;12.39;83.58;95808.97;5107966;28;20578;-77
2021/08/18 01:02:12;;;;;;;23.00;13.13;;;;;;;12.33;83.71;95803.53;5105036;28;20263;-76
2021/08/18 01:04:38;;;;;;;19.57;12.10;;;;;;;12.35;83.73;95802.41;5088452;28;20646;-77
2021/08/18 01:07:03;;;;;;;19.90;12.40;;;;;;;12.26;84.16;95803.31;5104745;28;20216;-78
2021/08/18 01:09:29;;;;;;;15.47;10.50;;;;;;;12.32;84.39;95804.50;5123549;28;20537;-77
2021/08/18 01:11:54;;;;;;;17.50;11.40;;;;;;;12.21;84.43;95799.56;5104130;28;20199;-77
2021/08/18 01:14:19;;;;;;;17.37;10.37;;;;;;;12.11;85.12;95805.66;5104146;28;20210;-78
2021/08/18 01:16:47;;;;;;;17.60;10.27;;;;;;;12.18;84.98;95800.66;5104523;28;20191;-77
2021/08/18 01:19:12;;;;;;;11.93;8.53;;;;;;;12.17;85.10;95794.63;5104816;28;20176;-75
2021/08/18 01:21:38;;;;;;;12.97;8.03;;;;;;;12.24;84.64;95799.25;5103628;28;20200;-76
2021/08/18 01:24:05;;;;;;;11.53;7.83;;;;;;;12.31;84.52;95797.66;5104266;28;20252;-77
2021/08/18 01:26:31;;;;;;;11.73;7.93;;;;;;;12.14;84.84;95800.16;5087588;28;20196;-78
2021/08/18 01:28:58;;;;;;;9.40;6.57;;;;;;;12.20;84.61;95801.34;5104606;28;20588;-76
2021/08/18 01:31:23;;;;;;;11.23;6.77;;;;;;;12.29;84.51;95808.25;5104692;28;20180;-77
2021/08/18 01:33:48;;;;;;;8.57;5.87;;;;;;;12.34;84.58;95810.38;5121144;28;20713;-77
2021/08/18 01:36:14;;;;;;;8.90;5.23;;;;;;;12.40;84.46;95809.78;5090202;28;20214;-77
2021/08/18 01:38:39;;;;;;;7.17;5.33;;;;;;;12.38;84.35;95801.31;5086685;28;20229;-78
2021/08/18 01:41:04;;;;;;;7.03;4.97;;;;;;;12.32;84.98;95804.50;5120908;28;20196;-77
2021/08/18 01:43:30;;;;;;;4.90;4.23;;;;;;;12.33;85.07;95808.75;5102981;28;20192;-77
2021/08/18 01:45:55;;;;;;;6.87;4.23;;;;;;;12.40;84.87;95800.19;5103091;28;20198;-77
2021/08/18 01:48:26;;;;;;;6.07;3.60;;;;;;;12.26;85.56;95798.09;5103961;28;20176;-77
2021/08/18 01:50:53;;;;;;;4.97;3.40;;;;;;;12.27;85.44;95804.13;5104072;28;20232;-78
2021/08/18 01:53:20;;;;;;;5.77;3.93;;;;;;;12.32;85.79;95807.94;5103873;28;20195;-77
2021/08/18 01:55:46;;;;;;;5.40;3.33;;;;;;;12.27;85.74;95807.56;5103689;28;20536;-77
2021/08/18 01:58:11;;;;;;;4.37;2.77;;;;;;;12.31;85.73;95810.69;5103048;28;20202;-77
2021/08/18 02:00:37;;;;;;;3.97;2.83;;;;;;;12.27;85.56;95809.34;5087107;28;20635;-76
2021/08/18 02:03:03;;;;;;;3.00;2.53;;;;;;;12.26;86.38;95808.53;5103618;28;20241;-75
2021/08/18 02:05:28;;;;;;;3.53;3.07;;;;;;;12.30;86.05;95803.84;5105215;28;20188;-77
2021/08/18 02:07:54;;;;;;;3.67;2.63;;;;;;;12.29;86.18;95799.63;5103757;28;20200;-77
2021/08/18 02:10:20;;;;;;;4.57;2.60;;;;;;;12.23;86.39;95802.81;5087084;28;20187;-77
2021/08/18 02:12:45;;;;;;;3.67;3.10;;;;;;;12.21;86.75;95804.75;5086057;28;20266;-77
2021/08/18 02:15:14;;;;;;;3.97;2.90;;;;;;;12.19;86.61;95800.53;5086736;28;20207;-76
2021/08/18 02:17:39;;;;;;;3.90;2.50;;;;;;;12.24;86.32;95804.44;5104303;28;20245;-76
2021/08/18 02:20:09;;;;;;;3.87;2.77;;;;;;;12.25;86.39;95800.88;5088031;28;20195;-77
2021/08/18 02:22:35;;;;;;;5.70;2.47;;;;;;;12.25;86.45;95799.09;5122028;28;20240;-77
2021/08/18 02:25:00;;;;;;;2.30;2.00;;;;;;;12.28;86.33;95798.81;5104178;28;20176;-77
2021/08/18 02:27:25;;;;;;;4.87;2.53;;;;;;;12.25;86.54;95801.69;5087759;28;20192;-77
2021/08/18 02:29:51;;;;;;;3.00;2.03;;;;;;;12.19;86.19;95797.06;5103463;28;20176;-77
2021/08/18 02:32:16;;;;;;;3.37;2.10;;;;;;;12.21;86.72;95792.56;5103683;28;20168;-77
2021/08/18 02:34:41;;;;;;;2.93;2.00;;;;;;;12.29;86.30;95792.63;5085402;28;20175;-75
2021/08/18 02:37:07;;;;;;;2.17;1.80;;;;;;;12.29;86.13;95790.00;5122217;28;20217;-77
2021/08/18 02:39:32;;;;;;;2.47;2.00;;;;;;;12.26;86.60;95790.28;5103243;28;20187;-76
2021/08/18 02:41:58;;;;;;;3.57;1.73;;;;;;;12.31;86.56;95789.84;5103291;28;20186;-76
2021/08/18 02:44:23;;;;;;;2.50;2.13;;;;;;;12.38;86.03;95796.09;5103421;28;20204;-76
2021/08/18 02:46:48;;;;;;;2.23;1.60;;;;;;;12.33;86.38;95787.91;5122010;28;20196;-77
2021/08/18 02:49:15;;;;;;;3.60;2.00;;;;;;;12.35;86.31;95788.56;5121427;28;20176;-77
2021/08/18 02:51:41;;;;;;;1.83;1.67;;;;;;;12.31;86.38;95795.88;5103100;28;20264;-76
2021/08/18 02:54:06;;;;;;;3.03;1.60;;;;;;;12.30;86.48;95796.84;5102826;28;20172;-76
2021/08/18 02:56:31;;;;;;;2.17;1.87;;;;;;;12.28;86.00;95793.59;5121987;28;20286;-77
2021/08/18 02:58:57;;;;;;;3.00;1.77;;;;;;;12.36;86.09;95787.59;5121582;28;20171;-77
2021/08/18 03:01:22;;;;;;;2.17;1.97;;;;;;;12.38;86.03;95796.09;5101700;28;20234;-77
2021/08/18 03:03:47;;;;;;;2.10;1.47;;;;;;;12.41;86.04;95801.00;5103125;28;20182;-77
2021/08/18 03:06:13;;;;;;;1.63;1.53;;;;;;;12.46;86.04;95803.97;5102444;28;20187;-76
2021/08/18 03:08:38;;;;;;;1.80;1.50;;;;;;;12.38;85.91;95801.31;5086349;28;20199;-77
2021/08/18 03:11:03;;;;;;;1.87;1.70;;;;;;;12.33;85.92;95798.31;5102848;28;20250;-77
2021/08/18 03:13:29;;;;;;;2.00;1.60;;;;;;;12.29;86.34;95797.00;5102281;28;20221;-76
2021/08/18 03:15:55;;;;;;;2.57;1.70;;;;;;;12.30;86.32;95796.84;5121282;28;20167;-77
2021/08/18 03:18:20;;;;;;;2.10;1.80;;;;;;;12.34;86.31;95797.34;5102897;28;20740;-77
2021/08/18 03:20:45;;;;;;;3.10;1.80;;;;;;;12.37;86.35;95794.47;5102840;28;20191;-75
2021/08/18 03:23:11;;;;;;;2.10;1.80;;;;;;;12.36;86.27;95792.81;5102972;28;20190;-77
2021/08/18 03:25:36;;;;;;;3.87;1.90;;;;;;;12.34;85.99;95798.16;5122524;28;20172;-77
2021/08/18 03:28:02;;;;;;;4.20;2.03;;;;;;;12.34;86.31;95798.16;5103506;28;20202;-78
2021/08/18 03:30:27;;;;;;;4.90;2.50;;;;;;;12.33;86.04;95800.94;5102937;28;20183;-77
2021/08/18 03:32:52;;;;;;;2.13;1.93;;;;;;;12.34;85.96;95799.97;5103427;28;20172;-77
2021/08/18 03:35:18;;;;;;;2.20;1.90;;;;;;;12.29;86.07;95795.22;5101286;28;20590;-77
2021/08/18 03:37:43;;;;;;;2.70;2.00;;;;;;;12.31;86.38;95800.28;5084935;28;20241;-77
2021/08/18 03:40:09;;;;;;;2.43;1.80;;;;;;;12.27;86.30;95794.53;5101798;28;20274;-78
2021/08/18 03:42:34;;;;;;;2.77;2.07;;;;;;;12.30;86.66;95796.84;5101225;28;20187;-76
2021/08/18 03:44:59;;;;;;;2.27;1.70;;;;;;;12.26;86.71;95797.28;5101362;28;20191;-77
2021/08/18 03:47:25;;;;;;;2.77;2.37;;;;;;;12.21;86.99;95797.75;5102446;28;20200;-78
2021/08/18 03:49:50;;;;;;;2.53;2.33;;;;;;;12.19;86.80;95797.06;5101370;28;20178;-77
2021/08/18 03:52:15;;;;;;;2.53;2.13;;;;;;;12.21;86.98;95795.16;5120338;28;20180;-77
2021/08/18 03:54:41;;;;;;;3.17;2.10;;;;;;;12.13;87.30;95797.69;5101915;28;20250;-77
2021/08/18 03:57:06;;;;;;;3.07;1.70;;;;;;;12.16;87.39;95797.38;5101324;28;20211;-77
2021/08/18 03:59:31;;;;;;;3.83;2.33;;;;;;;12.21;87.14;95797.75;5101988;28;20543;-77
2021/08/18 04:01:57;;;;;;;2.30;2.00;;;;;;;12.17;87.37;95802.44;5101600;28;20215;-77
2021/08/18 04:04:22;;;;;;;2.67;1.90;;;;;;;12.11;87.50;95802.25;5121064;28;20188;-77
2021/08/18 04:06:47;;;;;;;2.37;2.07;;;;;;;12.20;87.41;95798.75;5102611;28;20261;-77
2021/08/18 04:09:13;;;;;;;3.17;2.00;;;;;;;12.23;87.21;95806.22;5120951;28;21014;-77
2021/08/18 04:11:38;;;;;;;2.83;2.00;;;;;;;12.16;87.62;95806.00;5088158;28;20800;-77
2021/08/18 04:14:03;;;;;;;2.97;2.10;;;;;;;12.19;87.54;95804.88;5106105;28;20527;-77
2021/08/18 04:16:29;;;;;;;2.00;1.80;;;;;;;12.15;87.93;95806.16;5088783;28;20199;-78
2021/08/18 04:18:54;;;;;;;2.13;1.93;;;;;;;12.22;88.14;95802.00;5125408;28;20179;-77
2021/08/18 04:21:19;;;;;;;2.70;2.03;;;;;;;12.16;87.77;95800.81;5106695;28;20195;-77
2021/08/18 04:23:45;;;;;;;2.27;1.80;;;;;;;12.21;88.26;95804.75;5106547;28;20187;-77
2021/08/18 04:26:10;;;;;;;2.10;1.73;;;;;;;12.17;88.01;95802.44;5106269;28;20168;-78
2021/08/18 04:28:35;;;;;;;2.23;1.97;;;;;;;12.21;88.22;95804.75;5106476;28;20204;-76
2021/08/18 04:31:01;;;;;;;2.33;1.97;;;;;;;12.16;88.41;95802.59;5106930;28;20172;-77
2021/08/18 04:33:26;;;;;;;1.63;1.47;;;;;;;12.09;88.59;95799.78;5106189;28;20210;-77
2021/08/18 04:35:51;;;;;;;1.93;1.50;;;;;;;12.18;88.30;95809.28;5088345;28;20207;-76
2021/08/18 04:38:17;;;;;;;1.73;1.60;;;;;;;12.23;88.05;95808.03;5124107;28;20199;-77
2021/08/18 04:40:42;;;;;;;2.00;1.37;;;;;;;12.23;88.20;95806.22;5106803;28;20208;-76
2021/08/18 04:43:12;;;;;;;2.77;1.30;;;;;;;12.26;87.99;95812.91;5105366;28;20187;-77
2021/08/18 04:45:38;;;;;;;3.03;1.33;;;;;;;12.27;87.88;95811.94;5124002;28;20233;-77
2021/08/18 04:48:04;;;;;;;1.30;1.20;;;;;;;12.28;87.87;95810.97;5124231;28;20707;-77
2021/08/18 04:50:29;;;;;;;1.63;1.37;;;;;;;12.26;88.16;95811.13;5123756;28;20710;-77
2021/08/18 04:52:54;;;;;;;2.13;1.30;;;;;;;12.25;88.19;95808.69;5105513;28;20215;-75
2021/08/18 04:55:20;;;;;;;3.83;1.80;;;;;;;12.29;88.20;95812.63;5106085;28;20215;-77
2021/08/18 04:57:45;;;;;;;2.50;1.67;;;;;;;12.26;88.15;95811.13;5105930;28;20220;-77
2021/08/18 05:00:11;;;;;;;1.50;1.40;;;;;;;12.33;87.84;95808.75;5088436;28;20188;-76
2021/08/18 05:02:36;;;;;;;1.77;1.63;;;;;;;12.38;87.51;95814.31;5087463;28;20233;-77
2021/08/18 05:05:02;;;;;;;1.77;1.40;;;;;;;12.34;87.71;95815.59;5105226;28;20191;-77
2021/08/18 05:07:28;;;;;;;2.30;1.20;;;;;;;12.35;87.90;95812.81;5104923;28;20220;-78
2021/08/18 05:09:54;;;;;;;1.80;1.50;;;;;;;12.40;87.95;95810.59;5105567;28;20168;-77
2021/08/18 05:12:19;;;;;;;2.10;1.87;;;;;;;12.43;87.63;95819.88;5116743;28;20313;-77
2021/08/18 05:14:44;;;;;;;1.63;1.40;;;;;;;12.42;87.56;95816.47;5128459;27;20217;-77
2021/08/18 05:17:10;;;;;;;1.57;1.33;;;;;;;12.49;87.78;95819.28;5137917;27;20220;-78
2021/08/18 05:19:35;;;;;;;2.83;1.47;;;;;;;12.45;87.56;95823.16;5118421;27;20721;-78
2021/08/18 05:22:00;;;;;;;1.97;1.70;;;;;;;12.41;87.99;95821.81;5115732;27;20200;-77
2021/08/18 05:24:26;;;;;;;2.57;1.37;;;;;;;12.36;88.38;95817.06;5118181;27;20171;-78
2021/08/18 05:26:51;;;;;;;2.67;1.70;;;;;;;12.37;88.58;95825.72;5120429;27;20214;-76
2021/08/18 05:29:16;;;;;;;3.57;1.50;;;;;;;12.36;88.28;95824.06;5117897;27;20656;-77
2021/08/18 05:31:42;;;;;;;1.90;1.40;;;;;;;12.29;88.68;95829.06;5117431;27;20171;-77
2021/08/18 05:34:07;;;;;;;1.83;1.30;;;;;;;12.40;88.33;95825.41;5135116;27;20658;-77
2021/08/18 05:36:32;;;;;;;2.03;1.30;;;;;;;12.43;88.50;95825.09;5117470;27;20290;-77
2021/08/18 05:38:58;;;;;;;1.93;1.10;;;;;;;12.54;88.27;95826.63;5117827;27;20189;-77
2021/08/18 05:41:23;;;;;;;2.40;1.30;;;;;;;12.59;88.25;95827.81;5118982;27;20203;-77
2021/08/18 05:43:48;;;;;;;1.30;1.13;;;;;;;12.48;88.37;95825.47;5136011;27;20180;-77
2021/08/18 05:46:14;;;;;;;1.57;1.10;;;;;;;12.50;88.56;95826.13;5117384;27;20300;-77
2021/08/18 05:48:39;;;;;;;1.60;1.00;;;;;;;12.52;88.74;95825.97;5100105;27;20186;-78
2021/08/18 05:51:07;;;;;;;1.17;0.93;;;;;;;12.65;88.32;95818.56;5136785;27;20178;-76
2021/08/18 05:53:33;;;;;;;1.30;1.07;;;;;;;12.71;88.10;95833.56;5117892;27;20600;-78
2021/08/18 05:55:58;;;;;;;1.20;1.10;;;;;;;12.73;87.84;95826.44;5100484;27;20191;-77
2021/08/18 05:58:23;;;;;;;1.63;0.87;;;;;;;12.75;88.16;95827.91;5119112;27;20201;-78
2021/08/18 06:00:49;;;;;;;1.43;0.77;;;;;;;12.79;87.85;95823.19;5100986;27;20197;-77
2021/08/18 06:03:14;;;;;;;0.73;0.57;;;;;;;12.83;87.89;95826.34;5099096;27;20270;-78
2021/08/18 06:05:39;;;;;;;0.67;0.63;;;;;;;12.82;87.62;95830.72;5117407;27;20179;-78
2021/08/18 06:08:05;;;;;;;1.57;0.70;;;;;;;12.82;87.68;95824.69;5117690;27;20223;-76
2021/08/18 06:10:31;;;;;;;0.63;0.63;;;;;;;12.85;87.21;95827.00;5129748;27;20154;-77
2021/08/18 06:12:56;;;;;;;0.60;0.60;;;;;;;12.92;87.31;95822.78;5121480;27;20258;-77
2021/08/18 06:15:22;;;;;;;1.20;0.70;;;;;;;12.94;87.26;95828.66;5117915;27;20175;-77
2021/08/18 06:17:47;;;;;;;0.70;0.60;;;;;;;13.05;86.77;95831.00;5116919;27;20697;-78
2021/08/18 06:20:13;;;;;;;1.53;0.60;;;;;;;13.03;86.79;95828.53;5115698;27;20330;-77
2021/08/18 06:22:39;;;;;;;0.93;0.60;;;;;;;13.09;86.17;95832.34;5098230;27;20650;-77
2021/08/18 06:25:05;;;;;;;0.33;0.33;;;;;;;13.20;86.40;95833.88;5115840;27;20175;-75
2021/08/18 06:27:31;;;;;;;1.20;0.60;;;;;;;13.17;85.70;95828.94;5133412;27;20241;-76
2021/08/18 06:29:57;;;;;;;0.70;0.60;;;;;;;13.26;85.55;95833.25;5095298;27;20192;-76
2021/08/18 06:32:22;;;;;;;1.27;0.50;;;;;;;13.30;85.39;95839.78;5113676;27;20176;-76
2021/08/18 06:34:49;;;;;;;1.90;0.50;;;;;;;13.18;85.41;95838.41;5114874;27;20232;-76
2021/08/18 06:37:14;;;;;;;0.60;0.50;;;;;;;13.32;85.51;95843.03;5098110;27;20674;-76
2021/08/18 06:39:39;;;;;;;1.03;0.73;;;;;;;13.40;85.11;95839.66;5133840;27;20171;-78
2021/08/18 06:42:05;;;;;;;0.97;0.80;;;;;;;13.32;84.60;95838.63;5099642;27;20182;-78
2021/08/18 06:44:30;;;;;;;0.60;0.50;;;;;;;13.36;84.90;95839.16;5115694;27;20179;-78
2021/08/18 06:46:56;;;;;;;0.77;0.53;;;;;;;13.43;84.10;95840.16;5115394;27;20191;-77
2021/08/18 06:49:21;;;;;;;0.50;0.40;;;;;;;13.39;84.67;95846.66;5115824;27;20174;-77
2021/08/18 06:51:46;;;;;;;0.40;0.40;;;;;;;13.38;84.49;95846.81;5114946;27;20254;-78
2021/08/18 06:54:12;;;;;;;1.37;0.70;;;;;;;13.40;84.24;95848.28;5098552;27;20233;-78
2021/08/18 06:56:37;;;;;;;1.30;1.20;;;;;;;13.47;83.75;95841.47;5115202;27;20298;-77
2021/08/18 06:59:02;;;;;;;0.67;0.57;;;;;;;13.63;84.19;95845.94;5115859;27;20218;-79
2021/08/18 07:01:27;;;;;;;0.40;0.40;;;;;;;13.67;83.33;95849.03;5114826;27;20700;-78
2021/08/18 07:03:53;;;;;;;0.50;0.50;;;;;;;13.77;83.38;95844.47;5115970;27;20282;-77
2021/08/18 07:06:18;;;;;;;0.40;0.40;;;;;;;13.80;82.95;95842.38;5114885;27;20636;-77
2021/08/18 07:08:44;;;;;;;0.80;0.50;;;;;;;13.93;82.29;95846.31;5098738;27;20186;-77
2021/08/18 07:11:09;;;;;;;0.67;0.60;;;;;;;14.04;82.24;95844.19;5098347;27;20174;-76
2021/08/18 07:13:34;;;;;;;0.43;0.43;;;;;;;13.93;81.57;95841.91;5098348;27;20179;-77
2021/08/18 07:16:00;;;;;;;0.63;0.40;;;;;;;14.03;81.15;95837.34;5115410;27;20669;-76
2021/08/18 07:18:25;;;;;;;0.30;0.30;;;;;;;14.10;80.61;95842.75;5114743;27;20183;-76
2021/08/18 07:20:51;;;;;;;0.40;0.40;;;;;;;14.03;80.46;95841.75;5099194;27;20230;-77
2021/08/18 07:23:17;;;;;;;0.37;0.37;;;;;;;14.25;80.58;95846.34;5114817;28;20184;-77
2021/08/18 07:25:42;;;;;;;0.53;0.50;;;;;;;14.49;79.85;95837.72;5097779;27;20185;-75
2021/08/18 07:28:08;;;;;;;0.90;0.40;;;;;;;14.63;79.47;95849.31;5114305;27;20203;-77
2021/08/18 07:30:33;;;;;;;0.77;0.40;;;;;;;14.72;79.55;95848.31;5114187;28;20178;-76
2021/08/18 07:32:58;;;;;;;2.50;0.40;;;;;;;14.97;78.54;95842.06;5113568;28;20183;-75
2021/08/18 07:35:23;;;;;;;0.40;0.40;;;;;;;15.22;77.81;95840.19;5115390;28;20669;-78
2021/08/18 07:37:50;;;;;;;0.40;0.40;;;;;;;15.26;76.51;95841.47;5117288;28;20199;-78
2021/08/18 07:40:16;;;;;;;0.60;0.43;;;;;;;15.24;76.78;95842.63;5136520;28;20604;-78
2021/08/18 07:42:41;;;;;;;0.63;0.50;;;;;;;15.51;76.56;95850.03;5134714;28;20175;-78
2021/08/18 07:45:07;;;;;;;1.30;0.50;;;;;;;15.54;76.02;95847.06;5116811;27;20243;-76
2021/08/18 07:47:32;;;;;;;0.40;0.40;;;;;;;15.75;75.23;95846.53;5117926;27;20187;-76
2021/08/18 07:49:58;;;;;;;1.40;0.50;;;;;;;15.93;74.95;95843.63;5100954;27;20171;-75
2021/08/18 07:52:23;;;;;;;2.10;0.40;;;;;;;16.27;73.97;95838.00;5101360;27;20220;-77
2021/08/18 07:54:48;;;;;;;0.47;0.47;;;;;;;16.77;72.66;95841.03;5139354;27;20605;-77
2021/08/18 07:57:14;;;;;;;0.50;0.45;;;;;;;16.46;70.93;95836.69;5136655;27;20289;-77
2021/08/18 07:59:39;;;;;;;0.40;0.40;;;;;;;16.66;71.68;95840.44;5137264;27;20541;-77
2021/08/18 08:02:04;;;;;;;0.63;0.45;;;;;;;16.89;71.36;95834.38;5120416;27;20271;-78
2021/08/18 08:04:30;;;;;;;0.40;0.40;;;;;;;17.13;69.60;95838.53;5105103;27;20190;-78
2021/08/18 08:06:55;;;;;;;0.35;0.35;;;;;;;17.28;69.17;95841.97;5116963;27;20209;-76
2021/08/18 08:09:21;;;;;;;0.38;0.38;;;;;;;17.23;69.94;95836.47;5155544;27;20184;-78
2021/08/18 08:11:46;;;;;;;0.52;0.50;;;;;;;17.00;70.28;95841.78;5122924;27;20241;-78
2021/08/18 08:14:11;;;;;;;0.43;0.40;;;;;;;16.87;69.68;95842.44;5146080;27;20176;-78
2021/08/18 08:16:37;;;;;;;0.50;0.40;;;;;;;16.84;69.97;95847.19;5109838;27;20305;-78
2021/08/18 08:19:02;;;;;;;2.08;0.50;;;;;;;16.23;71.27;95849.81;5123353;27;20171;-78
2021/08/18 08:21:28;;;;;;;1.42;0.40;;;;;;;16.11;71.97;95846.78;5139515;27;21114;-78
2021/08/18 08:23:53;;;;;;;0.55;0.50;;;;;;;16.07;72.12;95844.69;5123061;27;20566;-77
2021/08/18 08:26:19;;;;;;;1.00;0.57;;;;;;;16.15;71.85;95849.88;5126247;27;20353;-78
2021/08/18 08:28:44;;;;;;;0.60;0.52;;;;;;;15.96;72.17;95859.00;5103175;28;20297;-77
2021/08/18 08:31:09;;;;;;;0.40;0.40;;;;;;;16.08;72.04;95851.56;5117800;28;20168;-78
2021/08/18 08:33:35;;;;;;;2.35;0.70;;;;;;;16.08;72.18;95851.56;5081931;28;20172;-78
2021/08/18 08:36:00;;;;;;;0.70;0.70;;;;;;;16.10;72.62;95855.63;5116441;28;20572;-77
2021/08/18 08:38:25;;;;;;;2.55;0.70;;;;;;;15.89;72.81;95863.28;5097742;28;20188;-78
2021/08/18 08:40:51;;;;;;;0.73;0.73;;;;;;;16.18;71.96;95854.78;5131958;27;20199;-78
2021/08/18 08:43:19;;;;;;;0.98;0.73;;;;;;;16.86;70.62;95856.50;5119562;27;20179;-78
2021/08/18 08:45:46;;;;;;;0.90;0.80;;;;;;;16.94;69.17;95853.00;5120006;27;20171;-79
2021/08/18 08:48:19;;;;;;;1.30;1.20;;;;;;;16.68;69.39;95859.47;5098946;28;20230;-79
2021/08/18 08:50:48;;;;;;;1.08;0.90;;;;;;;16.66;70.01;95864.03;5097955;28;20602;-78
2021/08/18 08:53:13;;;;;;;0.90;0.90;;;;;;;16.61;70.03;95863.78;5115608;28;20585;-77
2021/08/18 08:55:42;;;;;;;1.92;1.77;;;;;;;16.88;69.26;95861.59;5098331;28;20190;-77
2021/08/18 08:58:08;;;;;;;1.13;1.02;;;;;;;16.83;68.70;95856.06;5117455;27;20615;-78
2021/08/18 09:00:33;;;;;;;1.00;0.90;;;;;;;17.14;68.07;95859.38;5128528;27;20207;-78
2021/08/18 09:03:12;;;;;;;1.20;1.02;;;;;;;17.36;67.98;95862.88;5111266;27;20190;-76
2021/08/18 09:05:38;;;;;;;2.45;1.10;;;;;;;17.28;67.51;95855.91;5113685;27;20632;-77
2021/08/18 09:08:08;;;;;;;0.77;0.77;;;;;;;17.45;66.92;95858.34;5113745;27;20191;-76
2021/08/18 09:10:34;;;;;;;0.75;0.75;;;;;;;16.96;66.52;95853.63;5096188;27;20898;-77
2021/08/18 09:13:14;;;;;;;0.88;0.80;;;;;;;17.34;66.98;95849.13;5113232;27;20244;-76
2021/08/18 09:15:39;;;;;;;1.15;0.93;;;;;;;17.39;66.22;95851.19;5132827;27;20186;-76
2021/08/18 09:18:05;;;;;;;1.05;0.93;;;;;;;17.37;66.65;95848.75;5114753;27;20203;-78
2021/08/18 09:20:31;;;;;;;0.70;0.70;;;;;;;17.36;66.09;95854.19;5099880;27;20214;-76
2021/08/18 09:22:59;;;;;;;1.20;1.10;;;;;;;18.17;64.88;95845.25;5113078;27;20179;-76
2021/08/18 09:25:29;;;;;;;0.90;0.90;;;;;;;18.47;63.76;95845.13;5113531;27;20186;-77
2021/08/18 09:28:14;;;;;;;1.20;0.90;;;;;;;18.40;63.44;95851.13;5115299;27;20191;-77
2021/08/18 09:30:41;;;;;;;1.33;0.95;;;;;;;18.01;62.53;95848.09;5097512;27;20171;-77
2021/08/18 09:33:17;;;;;;;1.85;1.10;;;;;;;18.12;62.50;95852.91;5096501;27;20185;-76
2021/08/18 09:35:44;;;;;;;0.80;0.80;;;;;;;17.80;63.00;95856.78;5114946;27;20533;-77
2021/08/18 09:38:12;;;;;;;0.80;0.80;;;;;;;18.25;63.36;95847.75;5113975;27;20299;-76
2021/08/18 09:40:45;;;;;;;0.70;0.70;;;;;;;17.91;63.60;95847.59;5116716;27;20696;-77
2021/08/18 09:43:21;;;;;;;0.90;0.75;;;;;;;18.21;63.18;95849.16;5101386;27;20179;-78
2021/08/18 09:46:05;;;;;;;1.30;1.15;;;;;;;18.17;63.78;95841.81;5119377;27;20175;-76
2021/08/18 09:48:34;;;;;;;1.60;0.95;;;;;;;18.54;62.40;95838.09;5117868;27;20175;-78
2021/08/18 09:51:04;;;;;;;0.85;0.85;;;;;;;18.51;62.49;95844.56;5100775;27;20225;-78
2021/08/18 09:53:39;;;;;;;0.77;0.70;;;;;;;18.61;62.81;95837.16;5135449;27;20219;-78
2021/08/18 09:56:07;;;;;;;1.45;0.90;;;;;;;18.67;62.03;95843.50;5134643;27;20183;-76
2021/08/18 09:58:36;;;;;;;0.93;0.90;;;;;;;18.25;62.01;95837.25;5133246;27;20594;-76
2021/08/18 10:01:20;;;;;;;1.00;0.90;;;;;;;18.06;62.30;95840.50;5138806;27;20199;-79
2021/08/18 10:03:47;;;;;;;1.23;0.90;;;;;;;18.18;62.77;95841.63;5122337;27;20189;-78
2021/08/18 10:06:14;;;;;;;1.05;1.05;;;;;;;18.48;62.90;95841.50;5122947;27;20182;-79
2021/08/18 10:08:43;;;;;;;1.17;0.93;;;;;;;18.44;62.43;95845.50;5112658;28;20172;-77
2021/08/18 10:11:16;;;;;;;1.17;1.08;;;;;;;18.49;61.75;95849.19;5112370;28;20176;-78
2021/08/18 10:13:42;;;;;;;1.00;0.90;;;;;;;18.31;61.32;95861.97;5103504;28;20168;-80
2021/08/18 10:16:10;;;;;;;0.95;0.95;;;;;;;18.25;61.32;95860.91;5103683;28;20687;-80
2021/08/18 10:18:40;;;;;;;0.82;0.82;;;;;;;18.16;62.14;95859.41;5086171;28;20172;-76
2021/08/18 10:21:11;;;;;;;0.77;0.77;;;;;;;18.25;61.17;95857.47;5087533;28;20555;-80
2021/08/18 10:23:41;;;;;;;1.02;0.80;;;;;;;18.29;61.81;95861.34;5104255;28;20251;-78
2021/08/18 10:26:06;;;;;;;1.38;1.20;;;;;;;18.40;61.55;95861.66;5122928;28;20215;-79
2021/08/18 10:29:00;;;;;;;0.80;0.80;;;;;;;18.05;61.77;95857.25;5112506;27;20534;-79
2021/08/18 10:32:02;;;;;;;0.98;0.90;;;;;;;18.26;61.89;95853.81;5117435;27;20545;-79
2021/08/18 10:34:45;;;;;;;1.10;0.90;;;;;;;18.27;61.64;95861.53;5015191;28;20552;-79
2021/08/18 10:37:14;;;;;;;0.82;0.68;;;;;;;18.06;61.91;95858.88;4991851;28;20237;-79
2021/08/18 10:39:51;;;;;;;0.95;0.90;;;;;;;17.08;65.21;95857.44;5026982;28;20197;-78
2021/08/18 10:42:34;;;;;;;1.00;0.90;;;;;;;17.50;64.03;95858.63;5014102;28;20178;-79
2021/08/18 10:45:00;;;;;;;1.55;0.80;;;;;;;17.76;63.66;95863.41;5031329;28;20249;-79
2021/08/18 10:47:27;;;;;;;1.15;0.82;;;;;;;18.33;62.97;95860.78;4999188;28;20206;-78
2021/08/18 10:50:12;;;;;;;0.77;0.77;;;;;;;18.38;62.50;95860.22;5031874;28;20214;-79
2021/08/18 10:52:37;;;;;;;0.93;0.93;;;;;;;18.20;62.62;95859.81;5023566;28;20269;-78
2021/08/18 10:55:09;;;;;;;0.73;0.73;;;;;;;18.27;63.08;95856.25;5023123;28;20210;-79
2021/08/18 10:57:50;;;;;;;1.85;1.13;;;;;;;18.16;62.74;95856.75;5014888;28;20202;-78
2021/08/18 11:00:18;;;;;;;0.90;0.90;;;;;;;18.40;61.23;95850.34;5015167;28;20195;-79
2021/08/18 11:02:50;;;;;;;0.90;0.80;;;;;;;18.44;60.82;95861.28;5029207;28;20198;-79
2021/08/18 11:05:16;;;;;;;0.88;0.80;;;;;;;18.46;61.51;95860.06;5031210;28;20178;-78
2021/08/18 11:08:04;;;;;;;0.73;0.73;;;;;;;17.97;61.35;95852.13;5031751;28;20203;-78
2021/08/18 11:10:31;;;;;;;1.50;1.02;;;;;;;17.98;61.54;95859.00;5054340;28;20568;-79
2021/08/18 11:12:57;;;;;;;1.88;1.08;;;;;;;17.80;62.25;95846.28;5079617;28;20202;-78
2021/08/18 11:15:26;;;;;;;1.15;1.05;;;;;;;17.68;63.29;95853.00;5096212;28;20618;-79
2021/08/18 11:17:55;;;;;;;1.10;1.00;;;;;;;17.63;63.43;95853.53;5113275;28;20187;-79
2021/08/18 11:20:28;;;;;;;0.70;0.70;;;;;;;17.71;63.79;95857.88;5094584;28;20604;-79
2021/08/18 11:22:58;;;;;;;0.98;0.90;;;;;;;17.90;63.02;95851.22;5095669;28;20192;-79
2021/08/18 11:25:24;;;;;;;0.90;0.75;;;;;;;18.09;62.67;95858.50;5095385;28;20183;-79
2021/08/18 11:27:50;;;;;;;1.27;1.08;;;;;;;18.28;61.64;95851.81;5112505;28;20200;-78
2021/08/18 11:30:16;;;;;;;1.90;1.00;;;;;;;18.34;61.68;95851.06;5113634;28;20168;-79